Time;durP1;ratioP1;P1;durP2;ratioP2;P2;SDS_P1;SDS_P2;PMS_P1;PMS_P2;Temp;Humidity;BMP_temperature;BMP_pressure;BME280_temperature;BME280_humidity;BME280_pressure;Samples;Min_cycle;Max_cycle;Signal;HPM_P1;HPM_P2
2023/10/14 00:01:38;;;;;;;1.98;0.43;;;15.10;99.90;;;;;;5089640;28;20035;-88
2023/10/14 00:04:06;;;;;;;5.38;0.95;;;15.00;99.90;;;;;;5095053;28;20580;-88
2023/10/14 00:06:38;;;;;;;1.27;0.25;;;15.00;99.90;;;;;;5080762;28;20073;-88
2023/10/14 00:09:14;;;;;;;3.53;1.02;;;15.00;99.90;;;;;;5080144;28;20040;-88
2023/10/14 00:11:43;;;;;;;4.65;0.90;;;15.00;99.90;;;;;;5097546;28;20166;-87
2023/10/14 00:14:10;;;;;;;2.92;0.40;;;15.00;99.90;;;;;;5097469;28;20043;-88
2023/10/14 00:16:41;;;;;;;2.97;0.70;;;14.90;99.90;;;;;;5080527;28;20097;-89
2023/10/14 00:19:09;;;;;;;0.88;0.30;;;14.90;99.90;;;;;;5080178;28;20036;-88
2023/10/14 00:21:35;;;;;;;2.78;0.93;;;14.90;99.90;;;;;;5097556;28;20093;-89
2023/10/14 00:24:05;;;;;;;4.13;0.90;;;14.90;99.90;;;;;;5080061;28;20038;-88
2023/10/14 00:26:31;;;;;;;3.67;1.27;;;14.90;99.90;;;;;;5080609;28;20407;-88
2023/10/14 00:29:17;;;;;;;6.00;1.00;;;14.90;99.90;;;;;;5084117;28;20490;-89
2023/10/14 00:31:44;;;;;;;8.15;0.80;;;14.90;99.90;;;;;;5079829;28;20031;-89
2023/10/14 00:34:10;;;;;;;4.50;1.35;;;14.70;99.90;;;;;;5096963;28;20043;-89
2023/10/14 00:36:35;;;;;;;6.22;1.27;;;14.70;99.90;;;;;;5079963;28;20036;-89
2023/10/14 00:39:12;;;;;;;2.60;0.43;;;14.70;99.90;;;;;;5079901;28;20123;-89
2023/10/14 00:41:38;;;;;;;2.95;0.85;;;14.60;99.90;;;;;;5080415;28;20508;-89
2023/10/14 00:44:04;;;;;;;3.85;1.10;;;14.50;99.90;;;;;;5114892;28;20483;-89
2023/10/14 00:46:33;;;;;;;6.68;0.75;;;14.50;99.90;;;;;;5105194;28;20159;-90
2023/10/14 00:49:01;;;;;;;9.10;1.73;;;14.50;99.90;;;;;;5079495;28;20132;-89
2023/10/14 00:51:29;;;;;;;8.32;1.30;;;14.50;99.90;;;;;;5079536;28;20127;-89
2023/10/14 00:54:01;;;;;;;3.15;0.73;;;14.60;99.90;;;;;;5080006;28;20489;-89
2023/10/14 00:56:27;;;;;;;5.78;0.70;;;14.50;99.90;;;;;;5096538;28;20564;-89
2023/10/14 00:58:58;;;;;;;8.25;1.38;;;14.40;99.90;;;;;;5086582;28;20040;-89
2023/10/14 01:01:28;;;;;;;5.80;0.90;;;14.40;99.90;;;;;;5096670;28;20043;-89
2023/10/14 01:04:03;;;;;;;4.03;0.80;;;14.40;99.90;;;;;;5079312;28;20031;-89
2023/10/14 01:06:34;;;;;;;9.05;1.83;;;14.30;99.90;;;;;;5079858;28;20033;-89
2023/10/14 01:09:10;;;;;;;6.22;1.10;;;14.30;99.90;;;;;;5096393;28;20095;-89
2023/10/14 01:11:37;;;;;;;2.28;0.47;;;14.30;99.90;;;;;;5079695;28;20047;-89
2023/10/14 01:14:07;;;;;;;9.30;2.15;;;14.20;99.90;;;;;;5096153;28;20035;-89
2023/10/14 01:16:37;;;;;;;11.50;2.00;;;14.30;99.90;;;;;;5078502;28;20043;-89
2023/10/14 01:19:03;;;;;;;8.13;1.20;;;14.30;99.90;;;;;;5079338;28;20065;-89
2023/10/14 01:21:31;;;;;;;5.55;1.25;;;14.30;99.90;;;;;;5096360;28;20044;-89
2023/10/14 01:23:59;;;;;;;10.75;2.00;;;14.20;99.90;;;;;;5078646;28;20039;-89
2023/10/14 01:26:27;;;;;;;10.82;1.13;;;14.20;99.90;;;;;;5079293;28;20039;-89
2023/10/14 01:28:59;;;;;;;11.93;2.28;;;14.20;99.90;;;;;;5079707;28;20044;-89
2023/10/14 01:31:35;;;;;;;11.88;2.20;;;14.20;99.90;;;;;;5080359;28;20047;-89
2023/10/14 01:34:07;;;;;;;12.98;2.08;;;14.30;99.90;;;;;;5083607;28;20036;-89
2023/10/14 01:36:41;;;;;;;12.10;2.42;;;14.30;99.90;;;;;;5080423;28;20071;-89
2023/10/14 01:39:14;;;;;;;11.75;1.77;;;14.30;99.90;;;;;;5095823;28;20043;-89
2023/10/14 01:41:40;;;;;;;9.07;1.92;;;14.20;99.90;;;;;;5079072;28;20039;-89
2023/10/14 01:44:06;;;;;;;5.38;0.82;;;14.20;99.90;;;;;;5078934;28;20044;-89
2023/10/14 01:46:36;;;;;;;3.47;0.90;;;14.20;99.90;;;;;;5095677;28;20453;-89
2023/10/14 01:49:11;;;;;;;7.00;0.90;;;14.00;99.90;;;;;;5095061;28;20035;-89
2023/10/14 01:51:37;;;;;;;7.63;1.35;;;14.00;99.90;;;;;;5095706;28;20154;-89
2023/10/14 01:54:06;;;;;;;13.45;2.38;;;13.90;99.90;;;;;;5078815;28;20096;-89
2023/10/14 01:56:32;;;;;;;9.43;2.17;;;13.90;99.90;;;;;;5095520;28;20119;-89
2023/10/14 01:58:57;;;;;;;12.10;2.50;;;13.90;99.90;;;;;;5095634;28;20510;-89
2023/10/14 02:01:23;;;;;;;4.88;0.93;;;13.90;99.90;;;;;;5094913;28;20046;-88
2023/10/14 02:03:54;;;;;;;11.98;1.45;;;13.70;99.90;;;;;;5078668;28;20052;-89
2023/10/14 02:06:28;;;;;;;6.53;1.05;;;13.60;99.90;;;;;;5078638;28;20046;-88
2023/10/14 02:08:55;;;;;;;7.90;1.17;;;13.50;99.90;;;;;;5078210;28;20061;-89
2023/10/14 02:11:24;;;;;;;13.98;2.60;;;13.40;99.90;;;;;;5095374;28;20043;-88
2023/10/14 02:13:51;;;;;;;9.77;1.45;;;13.50;99.90;;;;;;5078317;28;20039;-89
2023/10/14 02:19:19;;;;;;;10.13;1.73;;;13.30;99.90;;;;;;4993967;28;20125;-89
2023/10/14 02:21:57;;;;;;;5.68;0.95;;;13.20;99.90;;;;;;5010348;28;20054;-88
2023/10/14 02:24:23;;;;;;;11.10;2.45;;;13.10;99.90;;;;;;5017454;28;20061;-88
2023/10/14 02:26:49;;;;;;;12.82;2.88;;;13.10;99.90;;;;;;4993710;28;20050;-88
2023/10/14 02:29:15;;;;;;;8.35;1.40;;;13.10;99.90;;;;;;4977229;28;20057;-88
2023/10/14 02:31:44;;;;;;;7.63;1.67;;;13.00;99.90;;;;;;4977840;28;20034;-88
2023/10/14 02:34:09;;;;;;;5.50;1.80;;;13.00;99.90;;;;;;4994210;28;20092;-88
2023/10/14 02:36:48;;;;;;;14.52;3.15;;;12.90;99.90;;;;;;4993739;28;20505;-88
2023/10/14 02:39:14;;;;;;;15.90;2.83;;;12.90;99.90;;;;;;4993680;28;20107;-88
2023/10/14 02:41:44;;;;;;;9.90;1.60;;;12.90;99.90;;;;;;4993800;28;20050;-89
2023/10/14 02:46:42;;;;;;;6.07;0.90;;;12.70;99.90;;;;;;4994001;28;20045;-88
2023/10/14 02:49:14;;;;;;;4.28;1.42;;;12.60;99.90;;;;;;4977036;28;20081;-88
2023/10/14 02:51:44;;;;;;;8.13;1.35;;;12.60;99.90;;;;;;4977481;28;20038;-88
2023/10/14 02:54:26;;;;;;;11.85;2.97;;;12.50;99.90;;;;;;5024235;28;20076;-88
2023/10/14 02:57:00;;;;;;;5.65;0.98;;;12.50;99.90;;;;;;5077437;28;20051;-88
2023/10/14 03:02:14;;;;;;;15.15;2.60;;;12.30;99.90;;;;;;5094458;28;20110;-88
2023/10/14 03:07:28;;;;;;;4.72;1.15;;;12.20;99.90;;;;;;5094488;28;20048;-88
2023/10/14 03:10:04;;;;;;;12.57;1.63;;;12.20;99.90;;;;;;5093380;28;20418;-88
2023/10/14 03:12:31;;;;;;;11.77;2.90;;;12.10;99.90;;;;;;5077642;28;20036;-88
2023/10/14 03:14:57;;;;;;;13.05;2.97;;;12.10;99.90;;;;;;5093788;28;20035;-88
2023/10/14 03:17:38;;;;;;;14.55;3.13;;;12.10;99.90;;;;;;5077105;28;20108;-87
2023/10/14 03:20:34;;;;;;;6.45;1.35;;;12.10;99.90;;;;;;5076537;28;20513;-87
2023/10/14 03:22:53;;;;;;;5.18;1.00;;;12.00;99.90;;;;;;5093719;28;20126;-88
2023/10/14 03:25:23;;;;;;;3.08;0.80;;;11.90;99.90;;;;;;5076920;28;20043;-88
2023/10/14 03:27:50;;;;;;;3.17;0.73;;;11.80;99.90;;;;;;5094000;28;20124;-88
2023/10/14 03:30:17;;;;;;;13.65;1.80;;;11.80;99.90;;;;;;5076809;28;20039;-88
2023/10/14 03:32:43;;;;;;;10.45;1.27;;;11.70;99.90;;;;;;5094096;28;20043;-88
2023/10/14 03:35:13;;;;;;;2.80;0.85;;;11.70;99.90;;;;;;5101233;28;20040;-88
2023/10/14 03:37:52;;;;;;;9.18;1.85;;;11.60;99.90;;;;;;5093819;28;20043;-88
2023/10/14 03:43:08;;;;;;;10.23;1.25;;;11.60;99.90;;;;;;5100606;28;20419;-88
2023/10/14 03:45:45;;;;;;;14.68;3.38;;;11.50;99.90;;;;;;5100293;28;20044;-88
2023/10/14 03:48:13;;;;;;;8.10;1.40;;;11.60;99.90;;;;;;5083645;28;20057;-88
2023/10/14 03:50:41;;;;;;;13.80;3.55;;;11.60;99.90;;;;;;5099875;28;20075;-88
2023/10/14 03:53:07;;;;;;;4.40;1.08;;;11.50;99.90;;;;;;5083106;28;20032;-87
2023/10/14 03:55:33;;;;;;;13.15;3.05;;;11.50;99.90;;;;;;5083673;28;20419;-87
2023/10/14 03:58:04;;;;;;;3.08;0.70;;;11.50;99.90;;;;;;5083124;28;20046;-88
2023/10/14 04:00:39;;;;;;;9.43;0.93;;;11.50;99.90;;;;;;5092023;28;20040;-88
2023/10/14 04:03:11;;;;;;;3.95;0.55;;;11.50;99.90;;;;;;5108544;28;20050;-88
2023/10/14 04:05:38;;;;;;;6.13;1.13;;;11.40;99.90;;;;;;5101779;28;20043;-88
2023/10/14 04:08:13;;;;;;;9.70;1.27;;;11.40;99.90;;;;;;5087923;28;20047;-88
2023/10/14 04:10:45;;;;;;;11.35;1.40;;;11.30;99.90;;;;;;5099800;28;20460;-88
2023/10/14 04:13:18;;;;;;;3.72;0.70;;;11.30;99.90;;;;;;5083518;28;20043;-88
2023/10/14 04:15:52;;;;;;;6.82;2.10;;;11.30;99.90;;;;;;5100410;28;20487;-88
2023/10/14 04:18:24;;;;;;;6.68;0.95;;;11.20;99.90;;;;;;5099918;28;20124;-89
2023/10/14 04:21:02;;;;;;;4.30;0.98;;;11.20;99.90;;;;;;5083163;28;20429;-88
2023/10/14 04:23:29;;;;;;;7.88;1.17;;;11.20;99.90;;;;;;5082509;28;20028;-88
2023/10/14 04:26:11;;;;;;;7.25;1.00;;;11.20;99.90;;;;;;5100091;28;20075;-88
2023/10/14 04:28:53;;;;;;;15.90;3.20;;;11.20;99.90;;;;;;5100411;28;20079;-88
2023/10/14 04:31:26;;;;;;;5.63;1.08;;;11.30;99.90;;;;;;5081862;28;20092;-88
2023/10/14 04:33:55;;;;;;;4.05;0.65;;;11.20;99.90;;;;;;5088593;28;20056;-88
2023/10/14 04:36:36;;;;;;;10.70;1.25;;;11.20;99.90;;;;;;5093230;28;20036;-89
2023/10/14 04:39:16;;;;;;;9.00;1.17;;;11.10;99.90;;;;;;5085040;28;20036;-88
2023/10/14 04:44:45;;;;;;;4.18;0.88;;;11.10;99.90;;;;;;5028402;28;20375;-88
2023/10/14 04:47:26;;;;;;;8.25;1.35;;;11.10;99.90;;;;;;5108336;28;20043;-88
2023/10/14 04:49:52;;;;;;;10.10;2.70;;;11.10;99.90;;;;;;5107587;28;20092;-88
2023/10/14 04:52:18;;;;;;;6.88;1.60;;;11.10;99.90;;;;;;5104120;28;20039;-88
2023/10/14 04:55:06;;;;;;;2.55;0.95;;;11.10;99.90;;;;;;5080104;28;20434;-88
2023/10/14 04:57:33;;;;;;;8.23;1.23;;;11.00;99.90;;;;;;5096505;28;20039;-88
2023/10/14 05:00:08;;;;;;;9.77;1.23;;;11.00;99.90;;;;;;5079497;28;20040;-88
2023/10/14 05:02:38;;;;;;;5.85;0.82;;;11.00;99.90;;;;;;5079608;28;20036;-88
2023/10/14 05:05:07;;;;;;;16.25;2.85;;;11.00;99.90;;;;;;5096569;28;20042;-88
2023/10/14 05:07:32;;;;;;;5.90;1.00;;;11.00;99.90;;;;;;5080074;28;20035;-88
2023/10/14 05:10:06;;;;;;;12.18;1.98;;;11.00;99.90;;;;;;5096348;28;20039;-88
2023/10/14 05:12:39;;;;;;;5.07;0.93;;;10.90;99.90;;;;;;5079278;28;20046;-88
2023/10/14 05:15:22;;;;;;;9.63;1.15;;;10.90;99.90;;;;;;5079681;28;20043;-88
2023/10/14 05:17:50;;;;;;;12.07;1.50;;;10.80;99.90;;;;;;5100228;28;20035;-88
2023/10/14 05:20:19;;;;;;;3.10;1.00;;;10.70;99.90;;;;;;5079250;28;20063;-88
2023/10/14 05:22:47;;;;;;;14.05;2.55;;;10.70;99.90;;;;;;5096303;28;20505;-88
2023/10/14 05:25:16;;;;;;;10.02;1.35;;;10.70;99.90;;;;;;5079483;28;20043;-88
2023/10/14 05:27:46;;;;;;;4.15;1.08;;;10.60;99.90;;;;;;5079224;28;20039;-88
2023/10/14 05:30:15;;;;;;;5.32;0.93;;;10.50;99.90;;;;;;5078806;28;20510;-87
2023/10/14 05:32:43;;;;;;;9.85;0.90;;;10.50;99.90;;;;;;5079235;28;20043;-87
2023/10/14 05:35:10;;;;;;;5.07;1.02;;;10.40;99.90;;;;;;5079014;28;20532;-87
2023/10/14 05:37:41;;;;;;;11.02;1.08;;;10.40;99.90;;;;;;5078989;28;20110;-87
2023/10/14 05:40:13;;;;;;;6.00;0.98;;;10.30;99.90;;;;;;5085649;28;20077;-86
2023/10/14 05:42:43;;;;;;;5.13;0.82;;;10.30;99.90;;;;;;5095915;28;20074;-87
2023/10/14 05:45:11;;;;;;;7.72;0.98;;;10.30;99.90;;;;;;5079116;28;20047;-87
2023/10/14 05:47:37;;;;;;;4.70;1.23;;;10.30;99.90;;;;;;5079182;28;20047;-87
2023/10/14 05:50:08;;;;;;;2.30;0.52;;;10.30;99.90;;;;;;5095410;28;20098;-87
2023/10/14 05:52:34;;;;;;;1.17;0.32;;;10.30;99.90;;;;;;5103300;28;20646;-87
2023/10/14 05:55:05;;;;;;;8.38;1.48;;;10.20;99.90;;;;;;5103698;28;20031;-87
2023/10/14 05:57:34;;;;;;;8.75;1.27;;;10.20;99.90;;;;;;5097595;28;20040;-87
2023/10/14 06:00:01;;;;;;;7.10;0.98;;;10.10;99.90;;;;;;5080818;28;20092;-87
2023/10/14 06:02:27;;;;;;;5.20;1.08;;;10.10;99.90;;;;;;5097430;28;20673;-87
2023/10/14 06:04:52;;;;;;;6.25;1.13;;;10.10;99.90;;;;;;5081666;28;20439;-87
2023/10/14 06:07:18;;;;;;;6.63;1.52;;;10.10;99.90;;;;;;5078623;28;20130;-87
2023/10/14 06:09:45;;;;;;;7.55;0.98;;;10.00;99.90;;;;;;5095505;28;20036;-87
2023/10/14 06:12:14;;;;;;;6.35;1.27;;;10.00;99.90;;;;;;5077902;28;20730;-87
2023/10/14 06:14:44;;;;;;;3.28;0.73;;;10.00;99.90;;;;;;5103908;28;20047;-87
2023/10/14 06:17:11;;;;;;;6.55;1.23;;;10.00;99.90;;;;;;5086821;28;20071;-87
2023/10/14 06:19:37;;;;;;;4.50;0.65;;;10.00;99.90;;;;;;5078136;28;20473;-87
2023/10/14 06:22:03;;;;;;;3.72;0.60;;;10.00;99.90;;;;;;5095241;28;20071;-87
2023/10/14 06:24:29;;;;;;;5.65;1.45;;;10.00;99.90;;;;;;5103849;28;20046;-87
2023/10/14 06:27:07;;;;;;;7.43;1.60;;;10.00;99.90;;;;;;5103304;28;20502;-87
2023/10/14 06:29:33;;;;;;;11.25;1.42;;;10.00;99.90;;;;;;5085935;28;20050;-87
2023/10/14 06:32:02;;;;;;;5.82;1.40;;;10.10;99.90;;;;;;5076979;28;20039;-88
2023/10/14 06:34:28;;;;;;;3.83;1.08;;;10.10;99.90;;;;;;5079814;28;20043;-88
2023/10/14 06:36:53;;;;;;;9.85;1.35;;;10.10;99.90;;;;;;5098550;28;20036;-87
2023/10/14 06:39:26;;;;;;;6.07;0.95;;;10.10;99.90;;;;;;5095469;28;20406;-87
2023/10/14 06:41:53;;;;;;;7.78;1.67;;;10.10;99.90;;;;;;5089850;28;20055;-88
2023/10/14 06:44:22;;;;;;;7.78;1.55;;;10.20;99.90;;;;;;5082034;28;20035;-88
2023/10/14 06:46:47;;;;;;;7.18;1.33;;;10.20;99.90;;;;;;5077736;28;20119;-88
2023/10/14 06:49:16;;;;;;;4.25;0.73;;;10.20;99.90;;;;;;5085979;28;20074;-88
2023/10/14 06:51:42;;;;;;;7.15;1.08;;;10.20;99.90;;;;;;5077285;28;20147;-88
2023/10/14 06:54:14;;;;;;;6.47;0.77;;;10.20;99.90;;;;;;5077633;28;20036;-88
2023/10/14 06:56:44;;;;;;;11.40;1.40;;;10.30;99.90;;;;;;5094681;28;20046;-88
2023/10/14 06:59:13;;;;;;;4.57;0.98;;;10.30;99.90;;;;;;5085513;28;20077;-88
2023/10/14 07:01:39;;;;;;;4.85;1.17;;;10.30;99.90;;;;;;5099910;28;20050;-88
2023/10/14 07:04:06;;;;;;;4.88;1.23;;;10.30;99.90;;;;;;5077473;28;20067;-88
2023/10/14 07:06:32;;;;;;;17.98;3.28;;;10.40;99.90;;;;;;5084000;28;20567;-88
2023/10/14 07:08:57;;;;;;;18.75;3.65;;;10.50;99.90;;;;;;5077361;28;20067;-88
2023/10/14 07:11:23;;;;;;;13.88;3.33;;;10.60;99.90;;;;;;5077474;28;20042;-88
2023/10/14 07:13:48;;;;;;;7.43;1.40;;;10.60;99.90;;;;;;5076994;28;20495;-88
2023/10/14 07:16:14;;;;;;;5.15;0.63;;;10.70;99.90;;;;;;5094196;28;20100;-87
2023/10/14 07:18:40;;;;;;;9.98;2.13;;;10.70;99.90;;;;;;5077108;28;20462;-88
2023/10/14 07:21:12;;;;;;;8.35;1.63;;;10.80;99.90;;;;;;5077289;28;20045;-87
2023/10/14 07:23:38;;;;;;;8.15;1.63;;;10.80;99.90;;;;;;5085595;28;20043;-88
2023/10/14 07:26:09;;;;;;;8.40;1.55;;;10.90;99.90;;;;;;5077219;28;20035;-88
2023/10/14 07:28:36;;;;;;;7.13;0.80;;;10.90;99.90;;;;;;5077464;28;20399;-88
2023/10/14 07:31:02;;;;;;;2.65;0.30;;;11.00;99.90;;;;;;5085430;28;20082;-88
2023/10/14 07:33:27;;;;;;;13.10;1.50;;;11.10;99.90;;;;;;5078090;28;20067;-88
2023/10/14 07:35:53;;;;;;;7.65;0.98;;;11.10;99.90;;;;;;5077487;28;20513;-88
2023/10/14 07:38:20;;;;;;;10.30;1.50;;;11.20;99.90;;;;;;5076911;28;20055;-88
2023/10/14 07:40:46;;;;;;;5.75;1.23;;;11.20;99.90;;;;;;5093480;28;20506;-88
2023/10/14 07:43:11;;;;;;;9.25;1.77;;;11.30;99.90;;;;;;5093476;28;20040;-88
2023/10/14 07:45:42;;;;;;;6.70;1.08;;;11.40;99.90;;;;;;5076984;28;20422;-87
2023/10/14 07:48:12;;;;;;;8.85;1.63;;;11.40;99.90;;;;;;5088210;28;20036;-88
2023/10/14 07:50:39;;;;;;;3.92;0.70;;;11.50;99.90;;;;;;5087851;28;20062;-88
2023/10/14 07:53:08;;;;;;;6.55;0.95;;;11.50;99.90;;;;;;5089673;28;20036;-88
2023/10/14 07:55:38;;;;;;;13.38;2.47;;;11.60;99.90;;;;;;5102283;28;20044;-88
2023/10/14 07:58:08;;;;;;;13.30;1.98;;;11.70;99.90;;;;;;5095302;28;20040;-88
2023/10/14 08:00:39;;;;;;;9.35;1.42;;;11.70;99.90;;;;;;5076929;28;20043;-88
2023/10/14 08:03:14;;;;;;;8.30;1.35;;;11.80;99.90;;;;;;5076777;28;20490;-87
2023/10/14 08:05:41;;;;;;;11.70;1.60;;;11.90;99.90;;;;;;5076782;28;20112;-88
2023/10/14 08:08:09;;;;;;;9.15;1.30;;;12.00;99.90;;;;;;5086207;28;20504;-88
2023/10/14 08:10:42;;;;;;;5.22;1.08;;;12.00;99.90;;;;;;5104293;28;20503;-88
2023/10/14 08:13:09;;;;;;;9.43;2.30;;;12.10;99.90;;;;;;5106593;28;20046;-88
2023/10/14 08:15:35;;;;;;;11.20;1.77;;;12.10;99.90;;;;;;5087534;28;20402;-88
2023/10/14 08:18:04;;;;;;;8.18;1.40;;;12.20;99.90;;;;;;5090090;28;20077;-88
2023/10/14 08:20:31;;;;;;;15.52;3.53;;;12.30;99.90;;;;;;5087344;28;20119;-88
2023/10/14 08:22:57;;;;;;;6.95;1.33;;;12.40;99.90;;;;;;5106089;28;20027;-88
2023/10/14 08:25:25;;;;;;;9.27;1.75;;;12.50;99.90;;;;;;5106776;27;20035;-87
2023/10/14 08:27:57;;;;;;;7.93;1.17;;;12.50;99.90;;;;;;5088469;27;20035;-88
2023/10/14 08:30:32;;;;;;;15.95;4.10;;;12.60;99.90;;;;;;5092708;27;20092;-88
2023/10/14 08:32:58;;;;;;;10.45;1.30;;;12.70;99.90;;;;;;5080832;28;20047;-88
2023/10/14 08:35:27;;;;;;;14.55;3.45;;;12.70;99.90;;;;;;5081521;28;20043;-88
2023/10/14 08:37:55;;;;;;;4.47;1.33;;;12.80;99.90;;;;;;5082573;28;20036;-88
2023/10/14 08:40:25;;;;;;;18.27;4.13;;;12.90;99.90;;;;;;5088309;28;20418;-88
2023/10/14 08:43:05;;;;;;;9.00;1.85;;;13.00;99.90;;;;;;5085156;28;20042;-88
2023/10/14 08:45:35;;;;;;;9.35;1.38;;;13.00;99.90;;;;;;5073825;28;20095;-88
2023/10/14 08:48:05;;;;;;;7.03;1.20;;;13.10;99.90;;;;;;5079987;28;20040;-88
2023/10/14 08:50:34;;;;;;;18.90;4.15;;;13.10;99.90;;;;;;5088635;28;20563;-88
2023/10/14 08:53:04;;;;;;;16.60;3.75;;;13.30;99.90;;;;;;5081761;28;20559;-88
2023/10/14 08:55:33;;;;;;;8.88;1.48;;;13.40;99.90;;;;;;5105173;28;20047;-88
2023/10/14 08:58:04;;;;;;;10.07;1.27;;;13.40;99.90;;;;;;5102554;27;20529;-88
2023/10/14 09:00:35;;;;;;;18.23;4.17;;;13.40;99.90;;;;;;5104928;28;20035;-87
2023/10/14 09:03:02;;;;;;;11.48;1.98;;;13.60;99.90;;;;;;5091169;27;20074;-88
2023/10/14 09:05:30;;;;;;;21.52;4.15;;;13.60;99.90;;;;;;5107770;27;20038;-89
2023/10/14 09:07:57;;;;;;;17.02;4.13;;;13.70;99.90;;;;;;5090088;27;20518;-89
2023/10/14 09:10:26;;;;;;;7.55;2.00;;;13.70;99.90;;;;;;5091433;27;20031;-89
2023/10/14 09:13:03;;;;;;;3.67;0.98;;;13.70;99.90;;;;;;5100320;28;20058;-89
2023/10/14 09:15:51;;;;;;;14.20;3.75;;;13.50;99.90;;;;;;5082263;28;20032;-89
2023/10/14 09:18:32;;;;;;;5.90;0.93;;;13.50;99.90;;;;;;5074467;28;20059;-89
2023/10/14 09:21:05;;;;;;;1.25;0.20;;;13.30;99.90;;;;;;5079392;28;20036;-89
2023/10/14 09:23:32;;;;;;;7.55;1.15;;;13.10;99.90;;;;;;5086157;28;20038;-89
2023/10/14 09:26:00;;;;;;;6.88;1.27;;;13.10;99.90;;;;;;5096419;28;20075;-89
2023/10/14 09:28:35;;;;;;;7.05;1.40;;;13.10;99.90;;;;;;5079848;28;20071;-89
2023/10/14 09:31:07;;;;;;;15.32;1.13;;;13.20;99.90;;;;;;5105029;28;20104;-89
2023/10/14 09:33:35;;;;;;;6.38;1.33;;;13.30;99.90;;;;;;5104240;28;20098;-89
2023/10/14 09:36:11;;;;;;;4.57;1.02;;;13.30;99.90;;;;;;5078896;28;20067;-89
2023/10/14 09:38:39;;;;;;;8.13;1.13;;;13.20;99.90;;;;;;5096159;28;20039;-89
2023/10/14 09:41:07;;;;;;;9.77;1.48;;;13.10;99.90;;;;;;5078297;28;20523;-89
2023/10/14 09:43:42;;;;;;;12.77;2.95;;;13.10;99.90;;;;;;5098129;28;20043;-89
2023/10/14 09:46:12;;;;;;;5.05;1.08;;;13.20;99.90;;;;;;5087577;28;20040;-89
2023/10/14 09:48:39;;;;;;;15.65;3.67;;;13.20;99.90;;;;;;5095693;28;20132;-89
2023/10/14 09:51:06;;;;;;;8.95;1.73;;;13.30;99.90;;;;;;5105490;28;20040;-88
2023/10/14 09:53:36;;;;;;;8.68;1.00;;;13.40;99.90;;;;;;5085621;28;20119;-89
2023/10/14 09:56:07;;;;;;;9.52;1.45;;;13.50;99.90;;;;;;5096126;28;20044;-89
2023/10/14 09:58:46;;;;;;;12.25;2.00;;;13.60;99.90;;;;;;5096298;28;20436;-89
2023/10/14 10:01:16;;;;;;;9.15;1.38;;;13.70;99.90;;;;;;5083360;28;20131;-90
2023/10/14 10:03:51;;;;;;;8.75;1.67;;;13.80;99.90;;;;;;5114460;27;20510;-89
2023/10/14 10:06:47;;;;;;;14.02;3.30;;;14.00;99.90;;;;;;5100717;28;20047;-89
2023/10/14 10:09:45;;;;;;;12.05;3.03;;;14.20;99.90;;;;;;5083836;28;20050;-89
2023/10/14 10:12:11;;;;;;;6.90;1.35;;;14.40;99.90;;;;;;5095185;28;20036;-89
2023/10/14 10:14:42;;;;;;;5.05;0.75;;;14.30;99.90;;;;;;5094874;28;20047;-89
2023/10/14 10:17:11;;;;;;;5.82;1.40;;;14.10;99.90;;;;;;5084666;28;20080;-90
2023/10/14 10:20:09;;;;;;;9.48;1.38;;;13.90;99.90;;;;;;5103217;28;20036;-90
2023/10/14 10:22:50;;;;;;;12.70;2.85;;;13.80;99.90;;;;;;5094837;28;20036;-89
2023/10/14 10:25:47;;;;;;;8.93;1.95;;;13.80;99.90;;;;;;5078487;28;20495;-90
2023/10/14 10:28:27;;;;;;;1.45;0.35;;;13.70;99.90;;;;;;5078596;28;20044;-90
2023/10/14 10:31:07;;;;;;;1.08;0.13;;;13.20;99.90;;;;;;5078135;28;20077;-90
2023/10/14 10:33:52;;;;;;;1.25;0.20;;;12.90;99.90;;;;;;5083937;28;20441;-89
2023/10/14 10:36:33;;;;;;;6.20;1.30;;;12.90;99.90;;;;;;5078260;28;20043;-90
2023/10/14 10:39:06;;;;;;;5.32;0.70;;;13.00;99.90;;;;;;5079956;28;20040;-90
2023/10/14 10:41:36;;;;;;;7.88;1.70;;;13.10;99.90;;;;;;5077262;28;20028;-90
2023/10/14 10:44:05;;;;;;;3.22;0.70;;;13.20;99.90;;;;;;5077938;28;20028;-90
2023/10/14 10:46:40;;;;;;;11.52;2.55;;;13.30;99.90;;;;;;5096767;28;20057;-90
2023/10/14 10:49:06;;;;;;;6.45;1.02;;;13.40;99.90;;;;;;5077850;28;20051;-90
2023/10/14 10:51:34;;;;;;;4.63;0.70;;;13.50;99.90;;;;;;5096520;28;20047;-89
2023/10/14 10:54:00;;;;;;;6.25;1.05;;;13.50;99.90;;;;;;5096729;28;20074;-90
2023/10/14 10:56:29;;;;;;;7.45;0.90;;;13.70;99.90;;;;;;5077287;28;20043;-90
2023/10/14 10:58:56;;;;;;;6.70;1.17;;;13.90;99.90;;;;;;5095818;27;20488;-90
2023/10/14 11:01:21;;;;;;;9.43;1.27;;;13.90;99.90;;;;;;5084726;27;20095;-87
2023/10/14 11:03:49;;;;;;;10.65;2.40;;;14.00;99.90;;;;;;5088605;27;20402;-88
2023/10/14 11:06:17;;;;;;;7.82;1.70;;;13.80;99.90;;;;;;5089604;27;20036;-87
2023/10/14 11:08:46;;;;;;;7.68;1.65;;;13.60;99.90;;;;;;5101902;27;20036;-88
2023/10/14 11:11:14;;;;;;;8.68;1.85;;;13.40;99.90;;;;;;5089077;27;20057;-87
2023/10/14 11:13:40;;;;;;;8.35;0.93;;;13.20;99.90;;;;;;5103746;28;20127;-87
2023/10/14 11:16:12;;;;;;;3.08;0.80;;;13.10;99.90;;;;;;5105613;27;20507;-87
2023/10/14 11:18:48;;;;;;;3.75;0.90;;;13.00;99.90;;;;;;5094161;28;20035;-87
2023/10/14 11:21:16;;;;;;;1.42;0.43;;;13.00;99.90;;;;;;5076792;28;20509;-87
2023/10/14 11:23:45;;;;;;;3.55;0.57;;;13.00;99.90;;;;;;5093867;28;20069;-87
2023/10/14 11:26:12;;;;;;;9.48;2.40;;;13.10;99.90;;;;;;5094510;28;20039;-88
2023/10/14 11:28:45;;;;;;;6.50;1.40;;;13.20;99.90;;;;;;5077664;28;20555;-88
2023/10/14 11:31:11;;;;;;;10.15;2.30;;;13.30;99.90;;;;;;5102727;28;20039;-88
2023/10/14 11:33:37;;;;;;;11.68;2.92;;;13.40;99.90;;;;;;5093588;28;20040;-87
2023/10/14 11:36:06;;;;;;;5.07;1.00;;;13.70;99.90;;;;;;5077465;28;20049;-87
2023/10/14 11:38:41;;;;;;;3.08;0.43;;;13.90;99.90;;;;;;5086216;28;20035;-87
2023/10/14 11:41:10;;;;;;;5.32;1.05;;;14.00;99.90;;;;;;5086088;28;20031;-87
2023/10/14 11:43:35;;;;;;;5.00;1.08;;;14.20;99.90;;;;;;5083665;28;20042;-89
2023/10/14 11:46:01;;;;;;;10.20;2.13;;;14.40;99.90;;;;;;5085605;28;20479;-89
2023/10/14 11:48:30;;;;;;;3.85;1.05;;;14.60;99.90;;;;;;5090078;28;20099;-88
2023/10/14 11:51:00;;;;;;;7.97;1.35;;;14.70;99.90;;;;;;5086394;28;20035;-89
2023/10/14 11:53:32;;;;;;;7.43;1.33;;;14.70;99.90;;;;;;5074012;28;20027;-88
2023/10/14 11:56:03;;;;;;;8.07;1.08;;;14.50;99.90;;;;;;5093420;28;20043;-89
2023/10/14 11:58:30;;;;;;;9.93;1.08;;;14.50;99.90;;;;;;5092642;28;20223;-89
2023/10/14 12:00:57;;;;;;;11.77;3.00;;;14.60;99.90;;;;;;5096115;28;20559;-89
2023/10/14 12:03:27;;;;;;;9.93;1.92;;;14.80;99.90;;;;;;5080415;28;20039;-89
2023/10/14 12:05:57;;;;;;;4.70;0.88;;;14.90;99.90;;;;;;5078647;28;20085;-89
2023/10/14 12:08:32;;;;;;;10.00;2.05;;;15.00;99.90;;;;;;5094960;28;20176;-89
2023/10/14 12:10:58;;;;;;;9.80;1.98;;;15.10;99.90;;;;;;5077836;28;20051;-89
2023/10/14 12:13:25;;;;;;;10.60;2.20;;;15.20;99.70;;;;;;5094316;28;20043;-89
2023/10/14 12:15:51;;;;;;;12.02;2.72;;;15.40;99.80;;;;;;5095544;28;20415;-88
2023/10/14 12:18:17;;;;;;;5.50;0.60;;;15.40;99.90;;;;;;5097458;28;20028;-89
2023/10/14 12:20:47;;;;;;;9.77;1.55;;;15.60;99.90;;;;;;5097305;28;20517;-89
2023/10/14 12:23:20;;;;;;;8.00;1.25;;;15.70;99.90;;;;;;5088867;28;20497;-88
2023/10/14 12:25:46;;;;;;;;;;;15.80;99.90;;;;;;5081014;28;20043;-89
2023/10/14 12:28:17;;;;;;;5.15;1.00;;;15.80;93.60;;;;;;5080523;28;19924;-89
2023/10/14 12:30:46;;;;;;;9.05;2.40;;;15.70;99.90;;;;;;5080212;28;20043;-90
2023/10/14 12:33:19;;;;;;;8.20;1.60;;;15.50;95.30;;;;;;5105373;28;20526;-89
2023/10/14 12:35:45;;;;;;;;;;;15.30;97.20;;;;;;5097597;28;20047;-89
2023/10/14 12:38:15;;;;;;;14.95;2.58;;;15.00;95.90;;;;;;5088442;28;20068;-89
2023/10/14 12:40:44;;;;;;;10.05;2.58;;;14.90;98.10;;;;;;5080574;28;20391;-89
2023/10/14 12:43:12;;;;;;;6.32;1.30;;;15.10;97.30;;;;;;5080017;28;20044;-89
2023/10/14 12:45:38;;;;;;;12.18;2.78;;;15.40;98.80;;;;;;5080427;28;20047;-89
2023/10/14 12:48:10;;;;;;;10.48;1.80;;;15.90;99.90;;;;;;5088152;28;20126;-89
2023/10/14 12:50:46;;;;;;;11.47;2.97;;;16.60;99.90;;;;;;5088231;28;20047;-90
2023/10/14 12:53:12;;;;;;;12.73;2.80;;;16.80;96.00;;;;;;5105358;28;20346;-90
2023/10/14 12:55:44;;;;;;;8.20;1.95;;;16.80;93.30;;;;;;5096464;28;20143;-90
2023/10/14 12:58:15;;;;;;;11.73;2.57;;;16.90;96.80;;;;;;5080006;28;20429;-90
2023/10/14 13:00:42;;;;;;;6.00;0.90;;;17.00;93.40;;;;;;5096385;28;20285;-89
2023/10/14 13:03:11;;;;;;;11.85;2.45;;;16.90;94.30;;;;;;5077120;28;20550;-90
2023/10/14 13:05:38;;;;;;;9.90;1.42;;;16.70;91.50;;;;;;5102032;28;20039;-90
2023/10/14 13:08:04;;;;;;;7.97;2.47;;;16.40;93.20;;;;;;5079225;28;20042;-90
2023/10/14 13:10:29;;;;;;;7.03;1.33;;;16.20;93.20;;;;;;5079859;28;20036;-89
2023/10/14 13:12:57;;;;;;;9.98;2.22;;;16.00;96.20;;;;;;5078858;28;20075;-89
2023/10/14 13:15:28;;;;;;;9.27;2.50;;;16.90;99.90;;;;;;5079427;28;20074;-90
2023/10/14 13:17:56;;;;;;;11.07;2.20;;;18.80;99.90;;;;;;5105251;28;20047;-90